Time;durP1;ratioP1;P1;durP2;ratioP2;P2;SDS_P1;SDS_P2;PMS_P1;PMS_P2;Temp;Humidity;BMP_temperature;BMP_pressure;BME280_temperature;BME280_humidity;BME280_pressure;Samples;Min_cycle;Max_cycle;Signal;HPM_P1;HPM_P2
2021/10/19 00:00:53;;;;;;;9.20;8.23;;;;;;;;;;6068683;29;20217;-55
2021/10/19 00:04:14;;;;;;;7.90;7.20;;;;;;;;;;6077862;29;20226;-53
2021/10/19 00:07:34;;;;;;;10.20;8.93;;;;;;;;;;6059121;29;20241;-53
2021/10/19 00:10:55;;;;;;;10.53;9.50;;;;;;;;;;6065905;29;20723;-52
2021/10/19 00:14:17;;;;;;;9.47;8.57;;;;;;;;;;6067299;29;20702;-53
2021/10/19 00:17:38;;;;;;;10.20;9.20;;;;;;;;;;6062165;29;20332;-53
2021/10/19 00:20:58;;;;;;;11.40;9.53;;;;;;;;;;6064304;29;20211;-52
2021/10/19 00:24:19;;;;;;;10.23;9.23;;;;;;;;;;6065220;29;20269;-56
2021/10/19 00:27:40;;;;;;;10.73;9.27;;;;;;;;;;6053273;29;20229;-55
2021/10/19 00:31:01;;;;;;;10.77;9.67;;;;;;;;;;6061792;29;20201;-53
2021/10/19 00:34:22;;;;;;;11.53;10.33;;;;;;;;;;6061932;29;20256;-52
2021/10/19 00:37:42;;;;;;;10.10;9.07;;;;;;;;;;6063808;29;20248;-54
2021/10/19 00:41:03;;;;;;;10.70;9.63;;;;;;;;;;6064916;29;20224;-53
2021/10/19 00:44:24;;;;;;;10.63;9.37;;;;;;;;;;6067828;29;20220;-53
2021/10/19 00:47:50;;;;;;;11.40;9.97;;;;;;;;;;6057154;29;20720;-53
2021/10/19 00:51:12;;;;;;;10.87;9.63;;;;;;;;;;6055239;29;20599;-51
2021/10/19 00:54:33;;;;;;;10.37;9.30;;;;;;;;;;6060451;29;20260;-49
2021/10/19 00:57:53;;;;;;;13.30;10.17;;;;;;;;;;6050583;29;20241;-53
2021/10/19 01:01:14;;;;;;;13.47;10.60;;;;;;;;;;6059806;29;20214;-53
2021/10/19 01:04:36;;;;;;;10.30;8.80;;;;;;;;;;6059109;29;20242;-53
2021/10/19 01:07:57;;;;;;;10.40;9.50;;;;;;;;;;6062531;29;20526;-54
2021/10/19 01:11:18;;;;;;;10.17;9.17;;;;;;;;;;6060950;29;20765;-53
2021/10/19 01:14:38;;;;;;;11.60;10.40;;;;;;;;;;6063131;29;20225;-53
2021/10/19 01:17:59;;;;;;;10.33;9.20;;;;;;;;;;6064480;29;20236;-54
2021/10/19 01:21:21;;;;;;;10.43;9.37;;;;;;;;;;6059571;29;20221;-52
2021/10/19 01:24:43;;;;;;;13.07;10.97;;;;;;;;;;6061095;29;20297;-53
2021/10/19 01:28:05;;;;;;;11.87;10.67;;;;;;;;;;6064144;29;20324;-55
2021/10/19 01:31:26;;;;;;;11.83;10.63;;;;;;;;;;6051569;29;20285;-55
2021/10/19 01:34:46;;;;;;;10.97;9.97;;;;;;;;;;6062131;29;20214;-51
2021/10/19 01:38:10;;;;;;;11.77;9.93;;;;;;;;;;6069752;29;20509;-49
2021/10/19 01:41:31;;;;;;;12.63;11.33;;;;;;;;;;6058420;29;20205;-54
2021/10/19 01:44:51;;;;;;;12.73;11.50;;;;;;;;;;6066869;29;20210;-53
2021/10/19 01:48:12;;;;;;;13.43;11.73;;;;;;;;;;6059633;29;20244;-53
2021/10/19 01:51:32;;;;;;;11.47;10.37;;;;;;;;;;6057828;29;20205;-53
2021/10/19 01:54:55;;;;;;;11.53;10.33;;;;;;;;;;6075151;29;20225;-54
2021/10/19 01:58:21;;;;;;;12.57;11.27;;;;;;;;;;6055718;29;20272;-53
2021/10/19 02:01:42;;;;;;;13.43;10.60;;;;;;;;;;6060139;29;20236;-55
2021/10/19 02:05:03;;;;;;;14.80;12.40;;;;;;;;;;6069206;29;20206;-55
2021/10/19 02:08:23;;;;;;;13.73;11.57;;;;;;;;;;6074773;29;20236;-54
2021/10/19 02:11:45;;;;;;;12.13;11.10;;;;;;;;;;6050158;29;20615;-52
2021/10/19 02:15:08;;;;;;;14.57;12.93;;;;;;;;;;6041675;29;20218;-54
2021/10/19 02:18:28;;;;;;;13.47;12.07;;;;;;;;;;6066729;29;20365;-54
2021/10/19 02:21:49;;;;;;;11.87;10.67;;;;;;;;;;6055303;29;20237;-53
2021/10/19 02:25:10;;;;;;;14.07;11.17;;;;;;;;;;6067155;29;20740;-53
2021/10/19 02:28:32;;;;;;;13.67;12.27;;;;;;;;;;6071523;29;20232;-55
2021/10/19 02:31:52;;;;;;;16.37;13.63;;;;;;;;;;6059206;29;20232;-54
2021/10/19 02:35:14;;;;;;;12.40;11.23;;;;;;;;;;6074368;29;20837;-54
2021/10/19 02:38:34;;;;;;;14.00;12.43;;;;;;;;;;6068602;29;20634;-52
2021/10/19 02:41:55;;;;;;;13.83;12.43;;;;;;;;;;6059879;29;20236;-55
2021/10/19 02:45:17;;;;;;;14.20;12.80;;;;;;;;;;6076822;29;20391;-56
2021/10/19 02:48:37;;;;;;;13.60;12.20;;;;;;;;;;6070945;29;20236;-52
2021/10/19 02:51:58;;;;;;;15.10;13.13;;;;;;;;;;6061434;29;20241;-53
2021/10/19 02:55:18;;;;;;;14.83;13.27;;;;;;;;;;6072777;29;20214;-55
2021/10/19 02:58:39;;;;;;;14.90;13.20;;;;;;;;;;6075452;29;20236;-55
2021/10/19 03:02:01;;;;;;;15.10;13.63;;;;;;;;;;6061439;29;20323;-53
2021/10/19 03:05:21;;;;;;;14.83;13.33;;;;;;;;;;6072754;29;20635;-54
2021/10/19 03:08:42;;;;;;;20.33;18.40;;;;;;;;;;6068818;29;20269;-53
2021/10/19 03:12:03;;;;;;;22.23;19.93;;;;;;;;;;6059637;29;20232;-54
2021/10/19 03:15:24;;;;;;;16.40;14.77;;;;;;;;;;6072925;29;20236;-54
2021/10/19 03:18:46;;;;;;;16.43;14.80;;;;;;;;;;6054042;29;20232;-53
2021/10/19 03:22:07;;;;;;;15.07;13.57;;;;;;;;;;6058392;29;20240;-54
2021/10/19 03:25:28;;;;;;;15.20;13.70;;;;;;;;;;6072184;29;20201;-55
2021/10/19 03:28:48;;;;;;;18.03;16.17;;;;;;;;;;6070100;29;20233;-49
2021/10/19 03:32:09;;;;;;;20.03;15.93;;;;;;;;;;6058242;29;20236;-53
2021/10/19 03:35:31;;;;;;;17.03;15.13;;;;;;;;;;6068855;29;20238;-52
2021/10/19 03:38:51;;;;;;;18.73;15.73;;;;;;;;;;6065801;29;20233;-52
2021/10/19 03:42:12;;;;;;;16.43;14.80;;;;;;;;;;6063480;29;20772;-53
2021/10/19 03:45:32;;;;;;;18.30;15.83;;;;;;;;;;6069835;29;20208;-55
2021/10/19 03:48:53;;;;;;;17.00;15.07;;;;;;;;;;6050909;29;20513;-52
2021/10/19 03:52:15;;;;;;;17.07;14.53;;;;;;;;;;6057164;29;20240;-51
2021/10/19 03:55:35;;;;;;;17.03;15.33;;;;;;;;;;6070140;29;20238;-53
2021/10/19 03:58:56;;;;;;;15.63;14.13;;;;;;;;;;6068622;29;20256;-50
2021/10/19 04:02:17;;;;;;;15.40;13.83;;;;;;;;;;6058525;29;21307;-55
2021/10/19 04:05:37;;;;;;;21.07;16.63;;;;;;;;;;6067044;29;20198;-51
2021/10/19 04:08:59;;;;;;;16.57;14.67;;;;;;;;;;6055020;29;20241;-55
2021/10/19 04:12:19;;;;;;;15.47;13.20;;;;;;;;;;6058876;29;20236;-54
2021/10/19 04:15:40;;;;;;;16.03;14.40;;;;;;;;;;6066194;29;20249;-54
2021/10/19 04:19:01;;;;;;;18.87;15.63;;;;;;;;;;6069469;29;20298;-56
2021/10/19 04:22:22;;;;;;;16.43;14.70;;;;;;;;;;6062400;29;20319;-55
2021/10/19 04:25:45;;;;;;;17.13;15.07;;;;;;;;;;6069191;29;20206;-56
2021/10/19 04:29:05;;;;;;;18.33;16.53;;;;;;;;;;6069580;29;20511;-50
2021/10/19 04:32:26;;;;;;;17.03;15.30;;;;;;;;;;6063290;29;20319;-54
2021/10/19 04:35:47;;;;;;;15.77;14.17;;;;;;;;;;6068519;29;20233;-54
2021/10/19 04:39:07;;;;;;;17.47;15.70;;;;;;;;;;6067157;29;20260;-56
2021/10/19 04:42:33;;;;;;;24.93;15.83;;;;;;;;;;6060829;29;20335;-55
2021/10/19 04:45:53;;;;;;;18.83;16.80;;;;;;;;;;6067002;29;20209;-51
2021/10/19 04:49:14;;;;;;;15.93;14.30;;;;;;;;;;6059820;29;20268;-55
2021/10/19 04:52:34;;;;;;;17.33;15.73;;;;;;;;;;6053085;29;20325;-55
2021/10/19 04:55:55;;;;;;;18.03;15.50;;;;;;;;;;6059311;29;20214;-49
2021/10/19 04:59:17;;;;;;;19.87;17.83;;;;;;;;;;6053656;29;20233;-54
2021/10/19 05:02:44;;;;;;;20.13;15.87;;;;;;;;;;6061965;29;20271;-56
2021/10/19 05:06:05;;;;;;;18.83;16.93;;;;;;;;;;6070496;29;20269;-55
2021/10/19 05:09:25;;;;;;;17.40;15.47;;;;;;;;;;6064787;29;20328;-53
2021/10/19 05:12:48;;;;;;;17.93;16.07;;;;;;;;;;6073515;29;20629;-54
2021/10/19 05:16:11;;;;;;;16.77;15.03;;;;;;;;;;6070224;29;20580;-54
2021/10/19 05:19:32;;;;;;;19.07;17.17;;;;;;;;;;6066756;29;20316;-55
2021/10/19 05:22:53;;;;;;;18.70;16.83;;;;;;;;;;6066287;29;20233;-50
2021/10/19 05:26:14;;;;;;;21.53;19.30;;;;;;;;;;6065926;29;20198;-51
2021/10/19 05:29:35;;;;;;;19.23;17.23;;;;;;;;;;6067258;29;20240;-51
2021/10/19 05:32:58;;;;;;;19.27;17.37;;;;;;;;;;6065603;29;20233;-54
2021/10/19 05:36:19;;;;;;;20.97;18.77;;;;;;;;;;6064964;29;20226;-55
2021/10/19 05:39:41;;;;;;;21.23;18.83;;;;;;;;;;6063588;29;20225;-56
2021/10/19 05:43:01;;;;;;;20.13;18.00;;;;;;;;;;6054484;29;20623;-56
2021/10/19 05:46:22;;;;;;;19.17;17.27;;;;;;;;;;6055169;29;20202;-50
2021/10/19 05:49:43;;;;;;;21.17;18.97;;;;;;;;;;6082239;29;20204;-54
2021/10/19 05:53:04;;;;;;;23.63;17.97;;;;;;;;;;6061394;29;20849;-51
2021/10/19 05:56:25;;;;;;;19.00;16.70;;;;;;;;;;6056088;29;20223;-51
2021/10/19 05:59:45;;;;;;;17.93;16.00;;;;;;;;;;6076200;29;20229;-52
2021/10/19 06:03:06;;;;;;;22.00;17.60;;;;;;;;;;6069280;29;20232;-51
2021/10/19 06:06:28;;;;;;;20.93;18.67;;;;;;;;;;6053613;29;20585;-59
2021/10/19 06:09:48;;;;;;;19.63;17.50;;;;;;;;;;6076249;29;20483;-55
2021/10/19 06:13:09;;;;;;;19.63;17.63;;;;;;;;;;6072577;29;20229;-56
2021/10/19 06:16:30;;;;;;;18.13;16.43;;;;;;;;;;6053277;29;20240;-52
2021/10/19 06:19:50;;;;;;;21.40;19.30;;;;;;;;;;6074044;29;20198;-53
2021/10/19 06:23:12;;;;;;;20.13;17.23;;;;;;;;;;6067821;29;20343;-55
2021/10/19 06:26:35;;;;;;;21.27;17.73;;;;;;;;;;6054646;29;20259;-53
2021/10/19 06:29:55;;;;;;;21.60;18.07;;;;;;;;;;6074207;29;20205;-53
2021/10/19 06:33:16;;;;;;;21.27;19.17;;;;;;;;;;6067720;29;20244;-53
2021/10/19 06:36:37;;;;;;;20.40;18.30;;;;;;;;;;6058141;29;20238;-52
2021/10/19 06:39:59;;;;;;;24.90;19.10;;;;;;;;;;6079864;29;20209;-53
2021/10/19 06:43:19;;;;;;;20.90;18.73;;;;;;;;;;6071585;29;20228;-50
2021/10/19 06:46:40;;;;;;;19.93;17.83;;;;;;;;;;6059553;29;20250;-53
2021/10/19 06:50:01;;;;;;;22.67;19.87;;;;;;;;;;6078578;29;20228;-54
2021/10/19 06:53:21;;;;;;;21.03;18.80;;;;;;;;;;6056624;29;20685;-53
2021/10/19 06:56:44;;;;;;;19.13;17.13;;;;;;;;;;6058738;29;20260;-54
2021/10/19 07:00:04;;;;;;;19.03;17.07;;;;;;;;;;6074556;29;20221;-55
2021/10/19 07:03:26;;;;;;;19.00;17.00;;;;;;;;;;6074802;29;20752;-55
2021/10/19 07:06:47;;;;;;;20.93;17.77;;;;;;;;;;6060218;29;20240;-56
2021/10/19 07:10:07;;;;;;;20.43;18.27;;;;;;;;;;6069001;29;20217;-56
2021/10/19 07:13:29;;;;;;;22.00;19.70;;;;;;;;;;6075815;29;20237;-53
2021/10/19 07:16:51;;;;;;;21.63;19.33;;;;;;;;;;6058593;29;20319;-53
2021/10/19 07:20:12;;;;;;;22.43;19.67;;;;;;;;;;6076414;29;20205;-54
2021/10/19 07:23:33;;;;;;;22.03;19.53;;;;;;;;;;6067419;29;20686;-56
2021/10/19 07:26:53;;;;;;;22.43;19.60;;;;;;;;;;6057791;29;20594;-55
2021/10/19 07:30:16;;;;;;;21.07;18.83;;;;;;;;;;6071426;29;20214;-54
2021/10/19 07:33:36;;;;;;;19.87;17.97;;;;;;;;;;6051225;29;20241;-53
2021/10/19 07:36:59;;;;;;;22.57;18.97;;;;;;;;;;6060436;29;20244;-52
2021/10/19 07:40:20;;;;;;;22.37;18.97;;;;;;;;;;6068046;29;20588;-54
2021/10/19 07:43:41;;;;;;;20.10;18.10;;;;;;;;;;6050218;29;20738;-54
2021/10/19 07:47:03;;;;;;;21.07;18.63;;;;;;;;;;6053451;29;20241;-53
2021/10/19 07:50:24;;;;;;;22.67;20.30;;;;;;;;;;6062822;29;20614;-52
2021/10/19 07:53:45;;;;;;;19.53;17.50;;;;;;;;;;6052162;29;20233;-56
2021/10/19 07:57:06;;;;;;;20.87;18.67;;;;;;;;;;6058122;29;20972;-52
2021/10/19 08:00:27;;;;;;;19.87;17.97;;;;;;;;;;6067824;29;20225;-54
2021/10/19 08:03:49;;;;;;;21.80;17.60;;;;;;;;;;6063842;29;20237;-51
2021/10/19 08:07:10;;;;;;;20.77;18.47;;;;;;;;;;6058330;29;20252;-54
2021/10/19 08:10:30;;;;;;;17.87;15.97;;;;;;;;;;6069230;29;20202;-52
2021/10/19 08:13:54;;;;;;;23.83;18.90;;;;;;;;;;6066725;29;20241;-55
2021/10/19 08:17:15;;;;;;;19.37;17.20;;;;;;;;;;6058676;29;20328;-57
2021/10/19 08:20:37;;;;;;;20.57;18.03;;;;;;;;;;6050713;29;20217;-55
2021/10/19 08:23:58;;;;;;;20.53;18.33;;;;;;;;;;6066009;29;20230;-59
2021/10/19 08:27:19;;;;;;;21.10;18.93;;;;;;;;;;6062114;29;20232;-55
2021/10/19 08:30:39;;;;;;;21.47;18.97;;;;;;;;;;6068345;29;20213;-57
2021/10/19 08:34:00;;;;;;;17.83;16.07;;;;;;;;;;6033252;29;20258;-57
2021/10/19 08:37:22;;;;;;;19.23;17.30;;;;;;;;;;6030544;29;20241;-57
2021/10/19 08:40:43;;;;;;;18.43;16.20;;;;;;;;;;6042265;29;20218;-56
2021/10/19 08:44:04;;;;;;;18.27;16.60;;;;;;;;;;6031181;29;20241;-57
2021/10/19 08:47:25;;;;;;;18.67;16.93;;;;;;;;;;6040795;29;20291;-56
2021/10/19 08:50:45;;;;;;;19.80;16.90;;;;;;;;;;6050387;29;20210;-58
2021/10/19 08:54:08;;;;;;;21.90;18.70;;;;;;;;;;6050323;29;20331;-55
2021/10/19 08:57:29;;;;;;;20.47;18.03;;;;;;;;;;6042126;29;20237;-55
2021/10/19 09:00:49;;;;;;;23.07;16.17;;;;;;;;;;6046650;29;20305;-55
2021/10/19 09:04:11;;;;;;;23.63;18.70;;;;;;;;;;6064435;29;20241;-56
2021/10/19 09:07:32;;;;;;;19.03;15.67;;;;;;;;;;6074906;29;20237;-52
2021/10/19 09:10:56;;;;;;;17.60;15.63;;;;;;;;;;6073783;29;20193;-52
2021/10/19 09:14:19;;;;;;;17.97;16.17;;;;;;;;;;6072929;29;20241;-52
2021/10/19 09:17:40;;;;;;;18.37;15.93;;;;;;;;;;6068278;29;20334;-50
2021/10/19 09:21:01;;;;;;;19.40;16.63;;;;;;;;;;6073034;29;20202;-53
2021/10/19 09:24:24;;;;;;;16.40;14.63;;;;;;;;;;6067648;29;20229;-56
2021/10/19 09:27:46;;;;;;;15.73;14.13;;;;;;;;;;6069388;29;20236;-54
2021/10/19 09:31:07;;;;;;;16.23;14.27;;;;;;;;;;6070640;29;20202;-57
2021/10/19 09:34:29;;;;;;;16.00;14.27;;;;;;;;;;6054576;29;20328;-52
2021/10/19 09:37:55;;;;;;;17.27;15.43;;;;;;;;;;6067260;29;20240;-50
2021/10/19 09:41:16;;;;;;;18.00;15.03;;;;;;;;;;6063017;29;20213;-57
2021/10/19 09:44:38;;;;;;;16.90;13.40;;;;;;;;;;6063986;29;20269;-54
2021/10/19 09:47:59;;;;;;;15.43;12.57;;;;;;;;;;6064866;29;20323;-58
2021/10/19 09:51:20;;;;;;;15.63;12.80;;;;;;;;;;6061582;29;20225;-53
2021/10/19 09:54:41;;;;;;;14.70;13.07;;;;;;;;;;6061809;29;20221;-56
2021/10/19 09:58:02;;;;;;;13.67;12.27;;;;;;;;;;6058983;29;20237;-54
2021/10/19 10:01:23;;;;;;;15.47;14.03;;;;;;;;;;6057628;29;20726;-57
2021/10/19 10:04:44;;;;;;;16.90;13.77;;;;;;;;;;6063843;29;20210;-52
2021/10/19 10:08:07;;;;;;;12.73;11.53;;;;;;;;;;6067626;29;20683;-58
2021/10/19 10:11:27;;;;;;;13.07;11.70;;;;;;;;;;6055703;29;20213;-55
2021/10/19 10:14:49;;;;;;;15.57;13.97;;;;;;;;;;6077025;29;20202;-52
2021/10/19 10:18:12;;;;;;;16.93;12.57;;;;;;;;;;6068111;29;20642;-53
2021/10/19 10:21:33;;;;;;;13.43;11.90;;;;;;;;;;6056593;29;20205;-56
2021/10/19 10:25:02;;;;;;;14.27;12.93;;;;;;;;;;6075716;29;20229;-59
2021/10/19 10:28:27;;;;;;;13.17;11.87;;;;;;;;;;6070233;29;20247;-57
2021/10/19 10:31:49;;;;;;;13.00;11.70;;;;;;;;;;6057391;29;20236;-53
2021/10/19 10:35:12;;;;;;;14.37;12.60;;;;;;;;;;6074821;29;20209;-52
2021/10/19 10:38:33;;;;;;;13.73;12.17;;;;;;;;;;6069910;29;20785;-54
2021/10/19 10:41:53;;;;;;;14.97;12.93;;;;;;;;;;6059046;29;20236;-57
2021/10/19 10:45:18;;;;;;;14.40;13.10;;;;;;;;;;6073287;29;20210;-56
2021/10/19 10:48:38;;;;;;;14.57;13.10;;;;;;;;;;6067929;29;20315;-52
2021/10/19 10:52:02;;;;;;;14.47;12.97;;;;;;;;;;6057975;29;20674;-56
2021/10/19 10:55:22;;;;;;;12.33;11.03;;;;;;;;;;6066186;29;20206;-56
2021/10/19 10:58:43;;;;;;;16.20;12.47;;;;;;;;;;6064552;29;20309;-56
2021/10/19 11:02:07;;;;;;;14.07;12.73;;;;;;;;;;6064075;29;20245;-52
2021/10/19 11:05:28;;;;;;;12.47;11.27;;;;;;;;;;6079388;29;20209;-51
2021/10/19 11:08:56;;;;;;;13.50;11.13;;;;;;;;;;6068927;29;20261;-55
2021/10/19 11:12:20;;;;;;;13.50;12.10;;;;;;;;;;6060833;29;20240;-52
2021/10/19 11:15:49;;;;;;;14.40;13.00;;;;;;;;;;6070596;29;20201;-54
2021/10/19 11:19:14;;;;;;;14.03;11.47;;;;;;;;;;6070353;29;20237;-54
2021/10/19 11:22:34;;;;;;;13.00;11.80;;;;;;;;;;6072230;29;20236;-55
2021/10/19 11:25:59;;;;;;;13.37;11.67;;;;;;;;;;6075090;29;20194;-55
2021/10/19 11:29:20;;;;;;;13.13;11.87;;;;;;;;;;6083009;29;20543;-54
2021/10/19 11:32:40;;;;;;;12.43;11.20;;;;;;;;;;6074976;29;20883;-54
2021/10/19 11:36:01;;;;;;;13.33;11.93;;;;;;;;;;6079204;29;20232;-55
2021/10/19 11:39:21;;;;;;;12.20;10.97;;;;;;;;;;6043471;29;20810;-55
2021/10/19 11:42:48;;;;;;;13.27;11.77;;;;;;;;;;6056516;29;20236;-52
2021/10/19 11:46:09;;;;;;;11.60;10.43;;;;;;;;;;6073359;29;20218;-51
2021/10/19 11:49:30;;;;;;;12.80;11.50;;;;;;;;;;6070963;29;20286;-53
2021/10/19 11:52:51;;;;;;;10.63;9.63;;;;;;;;;;6071029;29;20240;-55
2021/10/19 11:56:12;;;;;;;13.10;11.57;;;;;;;;;;6074528;29;20214;-55
2021/10/19 11:59:41;;;;;;;13.37;11.90;;;;;;;;;;6070612;29;20225;-52
2021/10/19 12:03:02;;;;;;;12.67;11.47;;;;;;;;;;6052747;29;20748;-51
2021/10/19 12:06:23;;;;;;;13.23;11.93;;;;;;;;;;6019038;29;20234;-53
2021/10/19 12:09:46;;;;;;;13.17;10.90;;;;;;;;;;6044957;29;20938;-52
2021/10/19 12:13:08;;;;;;;18.43;11.30;;;;;;;;;;6046920;29;20663;-55
2021/10/19 12:16:31;;;;;;;12.83;11.53;;;;;;;;;;6031225;29;20226;-55
2021/10/19 12:19:53;;;;;;;12.70;11.37;;;;;;;;;;6062177;29;20221;-55
2021/10/19 12:23:14;;;;;;;12.90;10.37;;;;;;;;;;6050269;29;20518;-50
2021/10/19 12:26:34;;;;;;;12.50;11.30;;;;;;;;;;6039030;29;20583;-49
2021/10/19 12:29:55;;;;;;;15.00;11.97;;;;;;;;;;6053239;29;20466;-53
2021/10/19 12:33:20;;;;;;;13.77;12.37;;;;;;;;;;6048492;29;20237;-53
2021/10/19 12:36:41;;;;;;;13.70;12.53;;;;;;;;;;6043961;29;25803;-53
2021/10/19 12:40:02;;;;;;;12.33;11.13;;;;;;;;;;6088155;29;20221;-55
2021/10/19 12:43:23;;;;;;;13.73;12.30;;;;;;;;;;6074705;29;20248;-53
2021/10/19 12:46:45;;;;;;;14.07;12.67;;;;;;;;;;6058526;29;20272;-54
2021/10/19 12:50:07;;;;;;;12.47;11.23;;;;;;;;;;6069881;29;20210;-54
2021/10/19 12:53:28;;;;;;;11.37;10.37;;;;;;;;;;6082914;29;20319;-52
2021/10/19 12:56:49;;;;;;;14.87;13.43;;;;;;;;;;6059890;29;20237;-54
2021/10/19 13:00:10;;;;;;;13.93;12.63;;;;;;;;;;6078219;29;20225;-51
2021/10/19 13:03:31;;;;;;;13.27;11.97;;;;;;;;;;6073974;29;20905;-57
2021/10/19 13:06:53;;;;;;;12.43;11.20;;;;;;;;;;6065483;29;20230;-57
2021/10/19 13:10:13;;;;;;;13.20;11.10;;;;;;;;;;6070953;29;20234;-55
2021/10/19 13:13:34;;;;;;;12.93;11.77;;;;;;;;;;6056922;29;20246;-51
2021/10/19 13:16:55;;;;;;;12.77;11.33;;;;;;;;;;6063555;29;20271;-52
2021/10/19 13:20:15;;;;;;;12.17;11.07;;;;;;;;;;6070337;29;20225;-53
2021/10/19 13:23:37;;;;;;;11.60;10.40;;;;;;;;;;6059418;29;20233;-51
2021/10/19 13:26:58;;;;;;;12.70;11.50;;;;;;;;;;6066156;29;20236;-56
2021/10/19 13:30:18;;;;;;;11.07;10.07;;;;;;;;;;6076002;29;20202;-55
2021/10/19 13:33:39;;;;;;;12.13;11.10;;;;;;;;;;6061385;29;20671;-54
2021/10/19 13:36:59;;;;;;;10.63;9.57;;;;;;;;;;6070425;29;20757;-53
2021/10/19 13:40:22;;;;;;;11.40;9.30;;;;;;;;;;6081193;29;20572;-52
2021/10/19 13:43:43;;;;;;;10.73;9.73;;;;;;;;;;6079273;29;20233;-53
2021/10/19 13:47:04;;;;;;;10.80;9.40;;;;;;;;;;6067301;29;20240;-51
2021/10/19 13:50:24;;;;;;;11.10;9.90;;;;;;;;;;6071479;29;20526;-53
2021/10/19 13:53:45;;;;;;;11.47;10.37;;;;;;;;;;6078195;29;20233;-54
2021/10/19 13:57:08;;;;;;;12.27;11.07;;;;;;;;;;6063522;29;20533;-55
2021/10/19 14:00:28;;;;;;;9.67;8.37;;;;;;;;;;6070364;29;20225;-54
2021/10/19 14:03:49;;;;;;;11.07;10.00;;;;;;;;;;6069892;29;21658;-54
2021/10/19 14:07:11;;;;;;;11.87;10.77;;;;;;;;;;6062377;29;20250;-50
2021/10/19 14:10:32;;;;;;;12.57;10.20;;;;;;;;;;6077063;29;20221;-54
2021/10/19 14:13:54;;;;;;;13.63;11.20;;;;;;;;;;6073635;29;20560;-55
2021/10/19 14:17:15;;;;;;;14.17;12.63;;;;;;;;;;6065748;29;20762;-54
2021/10/19 14:20:36;;;;;;;13.23;10.87;;;;;;;;;;6077673;29;20205;-54
2021/10/19 14:23:56;;;;;;;12.73;10.90;;;;;;;;;;6064722;29;20232;-53
2021/10/19 14:27:17;;;;;;;12.07;11.03;;;;;;;;;;6066046;29;20237;-50
2021/10/19 14:30:39;;;;;;;12.60;11.60;;;;;;;;;;6072599;29;20213;-50
2021/10/19 14:34:00;;;;;;;12.57;11.03;;;;;;;;;;6075523;29;20616;-52
2021/10/19 14:37:21;;;;;;;11.90;10.80;;;;;;;;;;6069080;29;20240;-52
2021/10/19 14:40:41;;;;;;;12.07;10.80;;;;;;;;;;6080396;29;20310;-52
2021/10/19 14:44:02;;;;;;;12.43;11.23;;;;;;;;;;6078128;29;20233;-51
2021/10/19 14:47:24;;;;;;;15.00;13.47;;;;;;;;;;6068308;29;20232;-54
2021/10/19 14:50:44;;;;;;;14.10;12.80;;;;;;;;;;6072207;29;20205;-50
2021/10/19 14:54:05;;;;;;;13.60;12.20;;;;;;;;;;6072735;29;20253;-54
2021/10/19 14:57:25;;;;;;;14.57;13.17;;;;;;;;;;6048202;29;20236;-50
2021/10/19 15:00:46;;;;;;;16.23;14.73;;;;;;;;;;6059581;29;20221;-54
2021/10/19 15:04:08;;;;;;;16.27;14.87;;;;;;;;;;6068275;29;20229;-49
2021/10/19 15:07:29;;;;;;;14.17;12.87;;;;;;;;;;6073328;29;20241;-54
2021/10/19 15:10:49;;;;;;;14.97;13.53;;;;;;;;;;6079348;29;20201;-54
2021/10/19 15:14:11;;;;;;;17.13;13.27;;;;;;;;;;6074679;29;20317;-53
2021/10/19 15:17:31;;;;;;;14.53;13.17;;;;;;;;;;6068534;29;20285;-53
2021/10/19 15:20:56;;;;;;;14.13;12.57;;;;;;;;;;6072472;29;20210;-52
2021/10/19 15:24:16;;;;;;;15.30;13.43;;;;;;;;;;6073657;29;20323;-54
2021/10/19 15:27:39;;;;;;;15.00;13.43;;;;;;;;;;6068630;29;20264;-52
2021/10/19 15:31:02;;;;;;;15.17;13.67;;;;;;;;;;6074960;29;20210;-50
2021/10/19 15:34:22;;;;;;;14.73;13.43;;;;;;;;;;6074410;29;20320;-51
2021/10/19 15:37:45;;;;;;;15.90;14.57;;;;;;;;;;6074198;29;20236;-53
2021/10/19 15:41:07;;;;;;;13.93;12.50;;;;;;;;;;6073200;29;20480;-52
2021/10/19 15:44:28;;;;;;;16.10;14.47;;;;;;;;;;6065153;29;20240;-51
2021/10/19 15:47:48;;;;;;;15.73;14.13;;;;;;;;;;6073489;29;20240;-54
2021/10/19 15:51:08;;;;;;;17.93;16.03;;;;;;;;;;6072933;29;20198;-52
2021/10/19 15:54:30;;;;;;;16.53;15.13;;;;;;;;;;6069017;29;20249;-50
2021/10/19 15:57:51;;;;;;;16.77;15.23;;;;;;;;;;6066471;29;21093;-53
2021/10/19 16:01:12;;;;;;;16.03;14.37;;;;;;;;;;6067779;29;20198;-54
2021/10/19 16:04:33;;;;;;;15.33;13.20;;;;;;;;;;6069136;29;20538;-51
2021/10/19 16:07:54;;;;;;;15.03;13.57;;;;;;;;;;6058354;29;20316;-49
2021/10/19 16:11:16;;;;;;;16.57;15.07;;;;;;;;;;6072642;29;20205;-52
2021/10/19 16:14:36;;;;;;;15.13;13.90;;;;;;;;;;6071482;29;20245;-52
2021/10/19 16:17:56;;;;;;;13.93;12.60;;;;;;;;;;6059741;29;20313;-54
2021/10/19 16:21:17;;;;;;;14.30;13.10;;;;;;;;;;6065854;29;20619;-52
2021/10/19 16:24:38;;;;;;;12.73;11.73;;;;;;;;;;6069416;29;20648;-53
2021/10/19 16:28:00;;;;;;;13.70;12.60;;;;;;;;;;6070177;29;20319;-53
2021/10/19 16:31:21;;;;;;;13.83;12.53;;;;;;;;;;6065860;29;20230;-54
2021/10/19 16:34:42;;;;;;;12.90;11.90;;;;;;;;;;6066688;29;20225;-54
2021/10/19 16:38:02;;;;;;;12.27;11.23;;;;;;;;;;6073097;29;20657;-53
2021/10/19 16:41:23;;;;;;;12.90;11.80;;;;;;;;;;6069162;29;20208;-52
2021/10/19 16:44:45;;;;;;;11.73;10.67;;;;;;;;;;6068542;29;20202;-55
2021/10/19 16:48:06;;;;;;;10.70;9.80;;;;;;;;;;6070902;29;20327;-56
2021/10/19 16:51:27;;;;;;;10.73;9.83;;;;;;;;;;6060133;29;20312;-51
2021/10/19 16:54:47;;;;;;;9.73;8.83;;;;;;;;;;6081238;29;20235;-53
2021/10/19 16:58:08;;;;;;;9.80;8.80;;;;;;;;;;6064433;29;20229;-53
2021/10/19 17:01:29;;;;;;;9.43;8.73;;;;;;;;;;6061374;29;20210;-56
2021/10/19 17:04:50;;;;;;;12.03;11.03;;;;;;;;;;6080161;29;20197;-53
2021/10/19 17:08:11;;;;;;;10.30;9.57;;;;;;;;;;6073836;29;20244;-55
2021/10/19 17:11:32;;;;;;;10.30;9.47;;;;;;;;;;6064209;29;20202;-55
2021/10/19 17:14:52;;;;;;;9.50;8.80;;;;;;;;;;6085017;29;20193;-53
2021/10/19 17:18:15;;;;;;;10.20;9.33;;;;;;;;;;6062885;29;20324;-56
2021/10/19 17:21:37;;;;;;;9.73;9.03;;;;;;;;;;6066993;29;20232;-56
2021/10/19 17:24:58;;;;;;;9.73;9.03;;;;;;;;;;6085338;29;20209;-56
2021/10/19 17:28:20;;;;;;;9.83;9.10;;;;;;;;;;6068768;29;20639;-56
2021/10/19 17:31:40;;;;;;;10.80;9.90;;;;;;;;;;6063906;29;20209;-55
2021/10/19 17:35:03;;;;;;;11.97;11.07;;;;;;;;;;6077649;29;20249;-53
2021/10/19 17:38:23;;;;;;;10.40;9.50;;;;;;;;;;6062889;29;20611;-53
2021/10/19 17:41:44;;;;;;;12.77;11.87;;;;;;;;;;6060382;29;22102;-54
2021/10/19 17:45:05;;;;;;;12.90;11.73;;;;;;;;;;6081901;29;20218;-55
2021/10/19 17:48:26;;;;;;;12.73;11.83;;;;;;;;;;6065685;29;20241;-54
2021/10/19 17:51:48;;;;;;;13.43;12.43;;;;;;;;;;6065509;29;20237;-55
2021/10/19 17:55:09;;;;;;;13.57;12.47;;;;;;;;;;6070120;29;20198;-54
2021/10/19 17:58:29;;;;;;;12.60;11.60;;;;;;;;;;6061652;29;20224;-54
2021/10/19 18:01:50;;;;;;;15.23;13.97;;;;;;;;;;6068124;29;20237;-55
2021/10/19 18:05:11;;;;;;;14.20;13.00;;;;;;;;;;6081837;29;20198;-55
2021/10/19 18:08:34;;;;;;;14.03;13.03;;;;;;;;;;6066658;29;20356;-54
2021/10/19 18:11:54;;;;;;;14.83;13.73;;;;;;;;;;6068740;29;20244;-56
2021/10/19 18:15:15;;;;;;;13.70;12.70;;;;;;;;;;6082964;29;20206;-53
2021/10/19 18:18:36;;;;;;;14.10;12.80;;;;;;;;;;6080456;29;20737;-54
2021/10/19 18:21:57;;;;;;;14.73;13.47;;;;;;;;;;6068364;29;20237;-58
2021/10/19 18:25:19;;;;;;;16.40;15.10;;;;;;;;;;6081954;29;20307;-53
2021/10/19 18:28:40;;;;;;;15.90;14.60;;;;;;;;;;6083526;29;20369;-52
2021/10/19 18:32:00;;;;;;;15.60;14.40;;;;;;;;;;6067945;29;20235;-57
2021/10/19 18:35:21;;;;;;;17.70;16.20;;;;;;;;;;6085670;29;20232;-56
2021/10/19 18:38:42;;;;;;;15.23;13.97;;;;;;;;;;6076826;29;20319;-51
2021/10/19 18:42:04;;;;;;;15.90;14.60;;;;;;;;;;6064286;29;20233;-53
2021/10/19 18:45:24;;;;;;;14.83;13.63;;;;;;;;;;6069942;29;20431;-56
2021/10/19 18:48:45;;;;;;;15.93;14.63;;;;;;;;;;6054056;29;20237;-55
2021/10/19 18:52:06;;;;;;;13.97;12.53;;;;;;;;;;6055314;29;20229;-56
2021/10/19 18:55:26;;;;;;;15.90;14.50;;;;;;;;;;6070998;29;20210;-52
2021/10/19 18:58:49;;;;;;;15.00;13.53;;;;;;;;;;6060478;29;20237;-57
2021/10/19 19:02:10;;;;;;;15.37;14.07;;;;;;;;;;6068954;29;20237;-53
2021/10/19 19:05:32;;;;;;;16.77;15.37;;;;;;;;;;6078528;29;20214;-54
2021/10/19 19:08:55;;;;;;;17.63;16.03;;;;;;;;;;6068963;29;20320;-56
2021/10/19 19:12:15;;;;;;;17.07;15.47;;;;;;;;;;6065713;29;20229;-50
2021/10/19 19:15:37;;;;;;;17.67;16.27;;;;;;;;;;6070675;29;21125;-55
2021/10/19 19:18:58;;;;;;;17.23;15.77;;;;;;;;;;6064008;29;20776;-55
2021/10/19 19:22:20;;;;;;;18.60;17.00;;;;;;;;;;6069942;29;20636;-51
2021/10/19 19:25:41;;;;;;;17.87;16.27;;;;;;;;;;6073687;29;20198;-55
2021/10/19 19:29:02;;;;;;;16.93;15.53;;;;;;;;;;6075124;29;20233;-55
2021/10/19 19:32:24;;;;;;;19.00;17.40;;;;;;;;;;6067857;29;20232;-57